createdAt,value
2022-09-24T00:02:05.126Z,101023.06
2022-09-24T00:04:33.341Z,101031.84
2022-09-24T00:07:01.470Z,101029.97
2022-09-24T00:09:29.627Z,101031.84
2022-09-24T00:11:57.776Z,101028.34
2022-09-24T00:14:25.918Z,101027.72
2022-09-24T00:16:54.062Z,101022.09
2022-09-24T00:19:22.265Z,101025.28
2022-09-24T00:21:50.737Z,101021.97
2022-09-24T00:24:37.230Z,101025.47
2022-09-24T00:27:06.587Z,101021.97
2022-09-24T00:29:36.218Z,101015.88
2022-09-24T00:32:06.711Z,101015.38
2022-09-24T00:34:35.094Z,101007.34
2022-09-24T00:37:03.516Z,101011.75
2022-09-24T00:39:31.704Z,101006.88
2022-09-24T00:41:59.951Z,101002.69
2022-09-24T00:44:40.771Z,100998.88
2022-09-24T00:47:26.185Z,100993.28
2022-09-24T00:50:45.310Z,100993.22
2022-09-24T00:53:29.195Z,101000.31
2022-09-24T00:56:01.193Z,100993.72
2022-09-24T00:58:33.543Z,100990.84
2022-09-24T01:01:07.285Z,100987.78
2022-09-24T01:03:41.088Z,100980.31
2022-09-24T01:06:09.891Z,100982.69
2022-09-24T01:08:38.320Z,100988.31
2022-09-24T01:11:38.812Z,100990.22
2022-09-24T01:14:16.817Z,100981.75
2022-09-24T01:16:55.913Z,100981.91
2022-09-24T01:19:26.905Z,100973.00
2022-09-24T01:22:03.099Z,100975.91
2022-09-24T01:24:55.958Z,100975.28
2022-09-24T01:27:29.977Z,100975.59
2022-09-24T01:30:12.876Z,100970.59
2022-09-24T01:32:58.157Z,100968.53
2022-09-24T01:35:40.053Z,100975.94
2022-09-24T01:38:23.474Z,100962.88
2022-09-24T01:40:54.473Z,100962.53
2022-09-24T01:43:27.114Z,100959.03
2022-09-24T01:45:59.918Z,100958.38
2022-09-24T01:48:29.878Z,100957.09
2022-09-24T01:51:08.386Z,100958.56
2022-09-24T01:53:47.477Z,100947.97
2022-09-24T01:56:33.481Z,100944.28
2022-09-24T01:59:31.898Z,100946.88
2022-09-24T02:02:35.531Z,100946.00
2022-09-24T02:05:44.926Z,100944.84
2022-09-24T02:08:44.351Z,100943.44
2022-09-24T02:11:23.338Z,100938.34
2022-09-24T02:14:10.670Z,100943.75
2022-09-24T02:16:49.116Z,100938.00
2022-09-24T02:19:25.176Z,100939.28
2022-09-24T02:21:53.574Z,100938.84
2022-09-24T02:24:37.195Z,100935.78
2022-09-24T02:27:05.505Z,100932.03
2022-09-24T02:29:33.793Z,100934.63
2022-09-24T02:32:06.812Z,100933.91
2022-09-24T02:34:44.249Z,100931.50
2022-09-24T02:37:15.193Z,100929.63
2022-09-24T02:39:43.895Z,100928.34
2022-09-24T02:42:15.686Z,100929.63
2022-09-24T02:44:44.008Z,100933.28
2022-09-24T02:47:12.276Z,100927.03
2022-09-24T02:49:40.583Z,100917.22
2022-09-24T02:52:09.944Z,100923.97
2022-09-24T02:54:38.403Z,100925.75
2022-09-24T02:57:07.005Z,100923.00
2022-09-24T02:59:36.369Z,100919.94
2022-09-24T03:02:04.663Z,100920.25
2022-09-24T03:04:32.929Z,100913.34
2022-09-24T03:07:01.227Z,100915.19
2022-09-24T03:09:30.219Z,100920.59
2022-09-24T03:12:00.634Z,100912.28
2022-09-24T03:14:28.873Z,100917.97
2022-09-24T03:16:57.053Z,100906.81
2022-09-24T03:19:25.184Z,100906.28
2022-09-24T03:21:53.370Z,100909.09
2022-09-24T03:24:24.394Z,100908.97
2022-09-24T03:26:52.609Z,100913.06
2022-09-24T03:29:40.751Z,100908.19
2022-09-24T03:32:08.953Z,100901.09
2022-09-24T03:34:37.166Z,100902.63
2022-09-24T03:37:05.320Z,100908.22
2022-09-24T03:39:33.503Z,100902.38
2022-09-24T03:42:01.648Z,100901.53
2022-09-24T03:44:29.768Z,100914.69
2022-09-24T03:46:57.978Z,100903.97
2022-09-24T03:49:26.218Z,100905.81
2022-09-24T03:51:54.357Z,100907.22
2022-09-24T03:54:22.524Z,100912.22
2022-09-24T03:56:50.700Z,100910.59
2022-09-24T03:59:18.895Z,100898.44
2022-09-24T04:01:47.057Z,100902.22
2022-09-24T04:04:16.350Z,100900.94
2022-09-24T04:06:45.160Z,100905.72
2022-09-24T04:09:13.318Z,100896.53
2022-09-24T04:11:41.666Z,100889.53
2022-09-24T04:14:10.110Z,100883.63
2022-09-24T04:16:38.360Z,100886.16
2022-09-24T04:19:08.168Z,100880.19
2022-09-24T04:21:36.291Z,100880.34
2022-09-24T04:24:05.336Z,100885.31
2022-09-24T04:26:33.599Z,100882.25
2022-09-24T04:29:02.823Z,100881.88
2022-09-24T04:31:33.015Z,100879.94
2022-09-24T04:34:02.052Z,100883.13
2022-09-24T04:36:30.321Z,100876.22
2022-09-24T04:38:58.470Z,100882.25
2022-09-24T04:41:26.601Z,100883.00
2022-09-24T04:43:56.320Z,100876.44
2022-09-24T04:46:24.539Z,100888.44
2022-09-24T04:48:53.243Z,100877.63
2022-09-24T04:51:22.095Z,100883.94
2022-09-24T04:53:51.027Z,100888.69
2022-09-24T04:56:19.271Z,100876.53
2022-09-24T04:58:51.834Z,100874.66
2022-09-24T05:01:20.613Z,100875.78
2022-09-24T05:03:48.791Z,100887.34
2022-09-24T05:06:16.949Z,100883.09
2022-09-24T05:08:45.084Z,100882.91
2022-09-24T05:11:13.247Z,100884.94
2022-09-24T05:13:41.378Z,100881.34
2022-09-24T05:16:09.581Z,100885.41
2022-09-24T05:18:37.729Z,100879.59
2022-09-24T05:21:06.158Z,100888.66
2022-09-24T05:23:34.297Z,100890.63
2022-09-24T05:26:20.911Z,100890.19
2022-09-24T05:28:49.028Z,100883.72
2022-09-24T05:31:17.461Z,100888.44
2022-09-24T05:33:46.266Z,100880.91
2022-09-24T05:36:14.469Z,100889.88
2022-09-24T05:38:42.603Z,100878.19
2022-09-24T05:41:10.922Z,100875.44
2022-09-24T05:43:41.168Z,100884.72
2022-09-24T05:46:09.461Z,100880.47
2022-09-24T05:48:37.829Z,100885.06
2022-09-24T05:51:07.020Z,100875.81
2022-09-24T05:53:35.654Z,100880.47
2022-09-24T05:56:04.202Z,100883.00
2022-09-24T05:58:32.584Z,100885.72
2022-09-24T06:01:01.702Z,100891.56
2022-09-24T06:03:31.707Z,100885.03
2022-09-24T06:06:02.221Z,100888.94
2022-09-24T06:08:35.146Z,100891.81
2022-09-24T06:11:06.689Z,100898.63
2022-09-24T06:13:35.457Z,100903.00
2022-09-24T06:16:10.013Z,100903.56
2022-09-24T06:18:41.653Z,100898.19
2022-09-24T06:21:17.677Z,100907.72
2022-09-24T06:23:45.880Z,100907.72
2022-09-24T06:26:15.125Z,100911.22
2022-09-24T06:28:43.342Z,100906.03
2022-09-24T06:31:12.535Z,100903.03
2022-09-24T06:33:41.054Z,100901.03
2022-09-24T06:36:10.433Z,100898.78
2022-09-24T06:38:40.409Z,100896.75
2022-09-24T06:41:09.580Z,100907.81
2022-09-24T06:43:38.018Z,100903.69
2022-09-24T06:46:06.352Z,100902.84
2022-09-24T06:48:34.692Z,100905.34
2022-09-24T06:51:05.408Z,100903.53
2022-09-24T06:53:33.850Z,100904.50
2022-09-24T06:56:03.594Z,100905.88
2022-09-24T06:58:31.837Z,100908.59
2022-09-24T07:01:03.785Z,100908.16
2022-09-24T07:03:34.401Z,100906.16
2022-09-24T07:06:05.416Z,100918.81
2022-09-24T07:08:33.811Z,100909.63
2022-09-24T07:11:02.361Z,100918.22
2022-09-24T07:13:31.320Z,100917.97
2022-09-24T07:16:01.493Z,100921.44
2022-09-24T07:18:30.008Z,100916.50
2022-09-24T07:20:58.366Z,100923.66
2022-09-24T07:23:27.894Z,100920.78
2022-09-24T07:25:57.929Z,100917.56
2022-09-24T07:28:26.386Z,100927.81
2022-09-24T07:31:00.016Z,100922.84
2022-09-24T07:33:30.818Z,100926.63
2022-09-24T07:35:58.947Z,100924.97
2022-09-24T07:38:27.142Z,100927.53
2022-09-24T07:40:59.013Z,100924.22
2022-09-24T07:43:29.190Z,100923.53
2022-09-24T07:45:58.214Z,100924.88
2022-09-24T07:48:26.506Z,100927.53
2022-09-24T07:50:54.962Z,100921.50
2022-09-24T07:53:24.251Z,100923.06
2022-09-24T07:55:52.777Z,100926.28
2022-09-24T07:58:21.130Z,100928.22
2022-09-24T08:00:49.280Z,100933.94
2022-09-24T08:03:17.458Z,100929.13
2022-09-24T08:05:45.843Z,100932.31
2022-09-24T08:08:15.011Z,100935.75
2022-09-24T08:10:43.779Z,100932.56
2022-09-24T08:13:12.230Z,100933.00
2022-09-24T08:15:41.082Z,100937.63
2022-09-24T08:18:09.947Z,100933.28
2022-09-24T08:20:38.958Z,100935.34
2022-09-24T08:23:12.820Z,100937.72
2022-09-24T08:25:41.013Z,100932.78
2022-09-24T08:28:12.221Z,100932.28
2022-09-24T08:30:40.491Z,100930.19
2022-09-24T08:33:10.015Z,100932.44
2022-09-24T08:35:41.861Z,100933.25
2022-09-24T08:38:10.720Z,100937.47
2022-09-24T08:41:12.341Z,100934.38
2022-09-24T08:43:56.433Z,100931.84
2022-09-24T08:46:54.401Z,100936.88
2022-09-24T08:49:32.010Z,100940.56
2022-09-24T08:52:22.479Z,100939.84
2022-09-24T08:54:54.587Z,100944.91
2022-09-24T08:57:23.293Z,100940.47
2022-09-24T08:59:53.009Z,100941.22
2022-09-24T09:02:49.494Z,100941.44
2022-09-24T09:06:17.838Z,100940.88
2022-09-24T09:09:17.532Z,100939.91
2022-09-24T09:12:03.463Z,100936.91
2022-09-24T09:14:53.818Z,100933.84
2022-09-24T09:18:16.229Z,100936.63
2022-09-24T09:20:48.325Z,100933.56
2022-09-24T09:23:39.963Z,100933.19
2022-09-24T09:26:12.313Z,100937.31
2022-09-24T09:28:40.897Z,100932.09
2022-09-24T09:31:30.408Z,100936.44
2022-09-24T09:34:32.409Z,100928.03
2022-09-24T09:37:14.907Z,100939.56
2022-09-24T09:40:10.385Z,100930.53
2022-09-24T09:42:40.619Z,100933.81
2022-09-24T09:45:44.348Z,100933.88
2022-09-24T09:48:16.474Z,100931.84
2022-09-24T09:50:51.903Z,100930.44
2022-09-24T09:53:31.264Z,100929.81
2022-09-24T09:56:05.055Z,100930.63
2022-09-24T09:58:37.666Z,100928.28
2022-09-24T10:01:17.291Z,100925.28
2022-09-24T10:03:46.392Z,100919.41
2022-09-24T10:06:24.174Z,100933.03
2022-09-24T10:08:52.710Z,100931.06
2022-09-24T10:11:23.281Z,100924.97
2022-09-24T10:14:06.295Z,100931.97
2022-09-24T10:16:45.798Z,100928.66
2022-09-24T10:19:25.286Z,100928.88
2022-09-24T10:21:58.043Z,100927.50
2022-09-24T10:24:29.249Z,100918.88
2022-09-24T10:26:57.895Z,100920.25
2022-09-24T10:29:52.100Z,100923.28
2022-09-24T10:32:24.537Z,100914.19
2022-09-24T10:34:58.789Z,100922.00
2022-09-24T10:37:29.346Z,100914.25
2022-09-24T10:40:12.474Z,100917.41
2022-09-24T10:42:41.195Z,100917.63
2022-09-24T10:45:15.470Z,100906.38
2022-09-24T10:48:26.957Z,100907.41
2022-09-24T10:51:08.546Z,100905.31
2022-09-24T10:54:10.092Z,100909.38
2022-09-24T10:56:52.203Z,100905.84
2022-09-24T11:00:01.198Z,100912.72
2022-09-24T11:03:02.535Z,100916.56
2022-09-24T11:05:39.443Z,100919.59
2022-09-24T11:08:46.847Z,100917.63
2022-09-24T11:11:50.886Z,100918.56
2022-09-24T11:14:44.125Z,100924.19
2022-09-24T11:17:18.283Z,100915.53
2022-09-24T11:20:24.266Z,100912.47
2022-09-24T11:23:23.518Z,100909.38
2022-09-24T11:26:26.178Z,100904.56
2022-09-24T11:29:49.729Z,100899.53
2022-09-24T11:32:19.765Z,100900.94
2022-09-24T11:34:56.874Z,100897.00
2022-09-24T11:38:13.332Z,100896.03
2022-09-24T11:41:34.125Z,100898.81
2022-09-24T11:44:43.677Z,100899.16
2022-09-24T11:47:51.960Z,100901.94
2022-09-24T11:51:15.521Z,100897.69
2022-09-24T11:54:02.172Z,100909.44
2022-09-24T11:56:57.584Z,100901.09
2022-09-24T12:00:08.599Z,100901.78
2022-09-24T12:02:50.237Z,100899.13
2022-09-24T12:05:46.663Z,100900.78
2022-09-24T12:08:36.843Z,100906.91
2022-09-24T12:11:30.825Z,100899.53
2022-09-24T12:14:18.648Z,100898.53
2022-09-24T12:16:56.805Z,100902.38
2022-09-24T12:20:01.242Z,100895.81
2022-09-24T12:22:33.233Z,100898.53
2022-09-24T12:25:02.069Z,100899.94
2022-09-24T12:27:37.417Z,100891.38
2022-09-24T12:30:52.349Z,100888.03
2022-09-24T12:33:38.379Z,100886.97
2022-09-24T12:36:24.441Z,100885.81
2022-09-24T12:39:12.547Z,100890.09
2022-09-24T12:41:51.533Z,100881.66
2022-09-24T12:44:51.249Z,100889.16
2022-09-24T12:47:27.926Z,100882.75
2022-09-24T12:50:34.417Z,100887.41
2022-09-24T12:53:02.739Z,100889.94
2022-09-24T12:55:35.550Z,100889.59
2022-09-24T12:58:07.568Z,100887.50
2022-09-24T13:00:45.761Z,100887.53
2022-09-24T13:03:34.182Z,100881.22
2022-09-24T13:06:18.630Z,100885.38
2022-09-24T13:08:47.077Z,100883.78
2022-09-24T13:11:37.681Z,100885.41
2022-09-24T13:14:21.983Z,100886.25
2022-09-24T13:16:55.348Z,100877.56
2022-09-24T13:19:41.073Z,100874.34
2022-09-24T13:22:27.479Z,100879.25
2022-09-24T13:25:07.760Z,100879.22
2022-09-24T13:27:39.808Z,100874.19
2022-09-24T13:30:32.130Z,100877.81
2022-09-24T13:33:12.634Z,100873.13
2022-09-24T13:36:08.641Z,100872.66
2022-09-24T13:38:55.237Z,100862.72
2022-09-24T13:41:50.876Z,100860.75
2022-09-24T13:44:40.970Z,100858.88
2022-09-24T13:47:41.471Z,100860.25
2022-09-24T13:50:27.380Z,100861.31
2022-09-24T13:53:17.280Z,100860.13
2022-09-24T13:56:00.192Z,100862.63
2022-09-24T13:58:34.742Z,100859.97
2022-09-24T14:01:17.360Z,100866.13
2022-09-24T14:04:01.959Z,100872.91
2022-09-24T14:06:53.609Z,100864.63
2022-09-24T14:09:34.381Z,100860.47
2022-09-24T14:12:16.036Z,100870.31
2022-09-24T14:14:49.940Z,100866.91
2022-09-24T14:17:18.104Z,100857.38
2022-09-24T14:19:47.592Z,100860.50
2022-09-24T14:22:36.584Z,100858.19
2022-09-24T14:25:18.173Z,100860.06
2022-09-24T14:27:51.481Z,100860.50
2022-09-24T14:30:25.998Z,100857.50
2022-09-24T14:33:03.058Z,100864.59
2022-09-24T14:35:38.469Z,100860.56
2022-09-24T14:38:16.287Z,100858.66
2022-09-24T14:40:51.106Z,100860.72
2022-09-24T14:44:04.499Z,100866.63
2022-09-24T14:46:48.730Z,100871.50
2022-09-24T14:49:25.870Z,100867.63
2022-09-24T14:52:00.358Z,100868.31
2022-09-24T14:54:40.372Z,100859.41
2022-09-24T14:57:17.530Z,100867.16
2022-09-24T14:59:46.942Z,100871.22
2022-09-24T15:02:35.101Z,100860.03
2022-09-24T15:05:08.330Z,100861.66
2022-09-24T15:07:36.812Z,100854.44
2022-09-24T15:10:06.354Z,100853.47
2022-09-24T15:12:40.806Z,100863.13
2022-09-24T15:15:15.230Z,100867.94
2022-09-24T15:17:47.070Z,100864.03
2022-09-24T15:20:15.757Z,100861.59
2022-09-24T15:22:46.142Z,100861.16
2022-09-24T15:25:16.841Z,100860.66
2022-09-24T15:27:45.434Z,100856.03
2022-09-24T15:30:19.968Z,100855.84
2022-09-24T15:32:52.421Z,100859.34
2022-09-24T15:35:20.961Z,100859.91
2022-09-24T15:37:49.564Z,100856.25
2022-09-24T15:40:26.082Z,100859.00
2022-09-24T15:42:54.340Z,100853.25
2022-09-24T15:45:24.896Z,100855.13
2022-09-24T15:47:53.737Z,100852.25
2022-09-24T15:50:23.954Z,100850.25
2022-09-24T15:52:59.108Z,100845.22
2022-09-24T15:55:28.884Z,100842.91
2022-09-24T15:57:57.187Z,100852.56
2022-09-24T16:00:26.467Z,100854.00
2022-09-24T16:02:57.484Z,100854.84
2022-09-24T16:05:26.196Z,100854.16
2022-09-24T16:07:54.362Z,100867.69
2022-09-24T16:10:22.663Z,100856.09
2022-09-24T16:12:50.823Z,100863.84
2022-09-24T16:15:19.065Z,100859.63
2022-09-24T16:17:50.077Z,100860.88
2022-09-24T16:20:18.338Z,100857.06
2022-09-24T16:22:46.574Z,100861.13
2022-09-24T16:25:14.830Z,100861.81
2022-09-24T16:27:43.670Z,100861.78
2022-09-24T16:30:11.918Z,100848.44
2022-09-24T16:32:40.065Z,100854.22
2022-09-24T16:35:13.749Z,100854.09
2022-09-24T16:37:41.915Z,100863.63
2022-09-24T16:40:10.928Z,100866.84
2022-09-24T16:42:39.466Z,100867.91
2022-09-24T16:45:10.503Z,100873.50
2022-09-24T16:47:38.657Z,100870.53
2022-09-24T16:50:07.409Z,100871.91
2022-09-24T16:52:35.580Z,100870.34
2022-09-24T16:55:04.787Z,100872.16
2022-09-24T16:57:37.706Z,100876.72
2022-09-24T17:00:10.990Z,100880.75
2022-09-24T17:02:39.269Z,100878.31
2022-09-24T17:05:08.036Z,100874.88
2022-09-24T17:07:36.194Z,100875.94
2022-09-24T17:10:14.159Z,100884.69
2022-09-24T17:12:50.638Z,100877.50
2022-09-24T17:15:20.974Z,100882.44
2022-09-24T17:17:50.787Z,100893.97
2022-09-24T17:20:19.750Z,100882.25
2022-09-24T17:22:49.411Z,100891.41
2022-09-24T17:25:17.663Z,100890.34
2022-09-24T17:27:45.962Z,100887.19
2022-09-24T17:30:14.786Z,100890.91
2022-09-24T17:32:42.980Z,100886.69
2022-09-24T17:35:11.277Z,100894.28
2022-09-24T17:37:39.516Z,100901.69
2022-09-24T17:40:08.148Z,100886.47
2022-09-24T17:42:36.521Z,100892.81
2022-09-24T17:45:05.366Z,100891.66
2022-09-24T17:47:53.853Z,100888.94
2022-09-24T17:50:22.071Z,100887.19
2022-09-24T17:52:50.241Z,100891.50
2022-09-24T17:55:18.544Z,100887.72
2022-09-24T17:57:46.771Z,100893.31
2022-09-24T18:00:14.976Z,100895.13
2022-09-24T18:02:43.469Z,100894.34
2022-09-24T18:05:11.925Z,100896.44
2022-09-24T18:07:40.177Z,100895.47
2022-09-24T18:10:09.142Z,100901.25
2022-09-24T18:12:37.318Z,100907.44
2022-09-24T18:15:05.895Z,100908.75
2022-09-24T18:17:34.224Z,100914.28
2022-09-24T18:20:02.791Z,100914.56
2022-09-24T18:22:31.253Z,100907.44
2022-09-24T18:25:01.749Z,100914.44
2022-09-24T18:27:31.819Z,100912.78
2022-09-24T18:30:03.652Z,100916.47
2022-09-24T18:32:31.947Z,100917.63
2022-09-24T18:35:01.569Z,100919.75
2022-09-24T18:37:29.851Z,100920.44
2022-09-24T18:39:58.437Z,100916.97
2022-09-24T18:42:27.912Z,100918.75
2022-09-24T18:44:56.141Z,100918.34
2022-09-24T18:47:24.395Z,100910.88
2022-09-24T18:49:53.079Z,100914.72
2022-09-24T18:52:21.359Z,100912.31
2022-09-24T18:54:50.527Z,100917.91
2022-09-24T18:57:18.726Z,100922.44
2022-09-24T18:59:48.639Z,100919.16
2022-09-24T19:02:17.024Z,100912.03
2022-09-24T19:04:45.421Z,100916.81
2022-09-24T19:07:13.716Z,100917.44
2022-09-24T19:09:41.895Z,100920.19
2022-09-24T19:12:10.082Z,100923.66
2022-09-24T19:14:38.231Z,100921.09
2022-09-24T19:17:07.172Z,100913.22
2022-09-24T19:19:35.343Z,100913.47
2022-09-24T19:22:03.579Z,100912.56
2022-09-24T19:24:31.739Z,100916.09
2022-09-24T19:27:00.322Z,100912.66
2022-09-24T19:29:29.167Z,100916.44
2022-09-24T19:31:58.198Z,100926.53
2022-09-24T19:34:26.386Z,100916.31
2022-09-24T19:36:55.070Z,100921.19
2022-09-24T19:39:23.259Z,100922.75
2022-09-24T19:41:52.945Z,100920.13
2022-09-24T19:44:21.278Z,100918.19
2022-09-24T19:46:49.468Z,100920.38
2022-09-24T19:49:17.713Z,100921.56
2022-09-24T19:51:45.923Z,100921.72
2022-09-24T19:54:14.224Z,100910.22
2022-09-24T19:56:42.515Z,100910.47
2022-09-24T19:59:11.195Z,100909.56
2022-09-24T20:01:40.590Z,100919.75
2022-09-24T20:04:09.292Z,100918.34
2022-09-24T20:06:38.728Z,100917.97
2022-09-24T20:09:07.980Z,100922.94
2022-09-24T20:11:36.192Z,100916.91
2022-09-24T20:14:06.281Z,100903.63
2022-09-24T20:16:34.720Z,100913.09
2022-09-24T20:19:04.737Z,100915.50
2022-09-24T20:21:38.303Z,100918.34
2022-09-24T20:24:10.631Z,100917.00
2022-09-24T20:26:57.531Z,100923.81
2022-09-24T20:29:25.826Z,100916.66
2022-09-24T20:31:55.765Z,100918.97
2022-09-24T20:34:33.617Z,100911.69
2022-09-24T20:37:05.944Z,100913.25
2022-09-24T20:39:34.246Z,100911.41
2022-09-24T20:42:03.886Z,100910.16
2022-09-24T20:44:33.351Z,100912.22
2022-09-24T20:47:01.934Z,100913.44
2022-09-24T20:49:30.179Z,100914.63
2022-09-24T20:51:58.464Z,100916.13
2022-09-24T20:54:28.653Z,100915.69
2022-09-24T20:56:57.935Z,100913.34
2022-09-24T20:59:27.133Z,100920.25
2022-09-24T21:01:55.828Z,100918.72
2022-09-24T21:04:24.274Z,100921.81
2022-09-24T21:06:52.653Z,100919.63
2022-09-24T21:09:21.129Z,100919.72
2022-09-24T21:11:50.553Z,100924.88
2022-09-24T21:14:19.354Z,100925.53
2022-09-24T21:16:48.146Z,100923.09
2022-09-24T21:19:16.581Z,100914.38
2022-09-24T21:21:45.144Z,100924.84
2022-09-24T21:24:15.519Z,100916.84
2022-09-24T21:26:45.365Z,100924.69
2022-09-24T21:29:20.987Z,100908.78
2022-09-24T21:31:49.742Z,100916.03
2022-09-24T21:34:23.115Z,100912.09
2022-09-24T21:36:53.202Z,100914.63
2022-09-24T21:39:23.957Z,100904.94
2022-09-24T21:41:55.425Z,100911.53
2022-09-24T21:44:23.688Z,100906.13
2022-09-24T21:46:53.078Z,100911.59
2022-09-24T21:49:21.416Z,100905.84
2022-09-24T21:51:50.715Z,100912.47
2022-09-24T21:54:18.967Z,100912.28
2022-09-24T21:56:47.789Z,100907.31
2022-09-24T21:59:35.881Z,100904.69
2022-09-24T22:02:05.061Z,100909.84
2022-09-24T22:04:33.631Z,100910.16
2022-09-24T22:07:04.044Z,100904.44
2022-09-24T22:09:32.786Z,100904.16
2022-09-24T22:12:02.110Z,100905.56
2022-09-24T22:14:31.132Z,100904.13
2022-09-24T22:16:59.467Z,100899.84
2022-09-24T22:19:27.785Z,100899.91
2022-09-24T22:21:55.939Z,100905.09
2022-09-24T22:24:24.199Z,100898.34
2022-09-24T22:26:54.029Z,100899.75
2022-09-24T22:29:22.958Z,100898.91
2022-09-24T22:31:51.156Z,100897.25
2022-09-24T22:34:37.939Z,100898.50
2022-09-24T22:37:06.998Z,100897.56
2022-09-24T22:39:35.544Z,100892.38
2022-09-24T22:42:04.319Z,100890.84
2022-09-24T22:44:32.564Z,100882.34
2022-09-24T22:47:00.800Z,100884.13
2022-09-24T22:49:29.133Z,100882.44
2022-09-24T22:51:57.314Z,100885.75
2022-09-24T22:54:25.520Z,100886.53
2022-09-24T22:56:53.684Z,100884.16
2022-09-24T22:59:21.874Z,100886.97
2022-09-24T23:01:50.083Z,100883.16
2022-09-24T23:04:18.359Z,100882.38
2022-09-24T23:06:46.510Z,100877.09
2022-09-24T23:09:14.776Z,100878.38
2022-09-24T23:11:42.911Z,100875.66
2022-09-24T23:14:16.047Z,100871.06
2022-09-24T23:16:44.411Z,100868.84
2022-09-24T23:19:19.858Z,100869.28
2022-09-24T23:21:48.132Z,100862.56
2022-09-24T23:24:20.292Z,100863.69
2022-09-24T23:26:48.564Z,100868.78
2022-09-24T23:29:17.457Z,100863.84
2022-09-24T23:31:45.622Z,100871.47
2022-09-24T23:34:14.322Z,100862.59
2022-09-24T23:36:42.733Z,100863.19
2022-09-24T23:39:10.898Z,100868.56
2022-09-24T23:41:39.083Z,100866.97
2022-09-24T23:44:07.278Z,100871.25
2022-09-24T23:46:35.475Z,100863.53
2022-09-24T23:49:04.569Z,100866.25
2022-09-24T23:51:32.916Z,100868.00
2022-09-24T23:54:01.297Z,100875.47
2022-09-24T23:56:29.540Z,100868.00
2022-09-24T23:58:58.108Z,100857.34
